Spokeville, Wisconsin
Current Conditions -  °F | °C
As of 3:54 PM on Tuesday 21 Oct 2014 (Local Time) from KMFI Reporting Station
Clear Clear  
Wind Chill: 51°   Ceiling: Unl
Heat Index: 51°   Visibility: 10mi
Dew Point: 36°   Wind: 8mph
Humidity: 56%   Direction: 110°ESE
Pressure: 30.21"   Gusts: NA
Location:  44.7314°N, 90.4931°W
Report Text: KMFI 212054Z AUTO 11007KT 10SM CLR 11/02 A3021 RMK AO2 SLP239 T01060022 58003
Loading
Personal Weather Stations






























Interactive Weather Map
Tropical Storm Tracking
New forecast layout! Learn more

10-Day Weather Forecast

Advertisements
Track Severe Weather on mobile